sensor_id;sensor_type;location;lat;lon;timestamp;temperature;humidity
2647;DHT22;1333;50.958;6.770;2023-02-22T00:00:49;6.90;99.90
2647;DHT22;1333;50.958;6.770;2023-02-22T00:03:19;6.90;99.90
2647;DHT22;1333;50.958;6.770;2023-02-22T00:05:50;6.80;99.90
2647;DHT22;1333;50.958;6.770;2023-02-22T00:08:18;6.70;99.90
2647;DHT22;1333;50.958;6.770;2023-02-22T00:10:45;6.70;99.90
2647;DHT22;1333;50.958;6.770;2023-02-22T00:13:13;6.70;99.90
2647;DHT22;1333;50.958;6.770;2023-02-22T00:15:39;6.70;99.90
2647;DHT22;1333;50.958;6.770;2023-02-22T00:18:11;6.70;99.90
2647;DHT22;1333;50.958;6.770;2023-02-22T00:20:37;6.70;99.90
2647;DHT22;1333;50.958;6.770;2023-02-22T00:23:07;6.70;99.90
2647;DHT22;1333;50.958;6.770;2023-02-22T00:25:34;6.70;99.90
2647;DHT22;1333;50.958;6.770;2023-02-22T00:28:00;6.70;99.90
2647;DHT22;1333;50.958;6.770;2023-02-22T00:30:28;6.70;99.90
2647;DHT22;1333;50.958;6.770;2023-02-22T00:32:55;6.70;99.90
2647;DHT22;1333;50.958;6.770;2023-02-22T00:35:23;6.60;99.90
2647;DHT22;1333;50.958;6.770;2023-02-22T00:37:51;6.60;99.90
2647;DHT22;1333;50.958;6.770;2023-02-22T00:40:25;6.60;99.90
2647;DHT22;1333;50.958;6.770;2023-02-22T00:42:52;6.70;99.90
2647;DHT22;1333;50.958;6.770;2023-02-22T00:45:20;6.60;99.90
2647;DHT22;1333;50.958;6.770;2023-02-22T00:47:46;6.70;99.90
2647;DHT22;1333;50.958;6.770;2023-02-22T00:50:12;6.70;99.90
2647;DHT22;1333;50.958;6.770;2023-02-22T00:52:38;6.70;99.90
2647;DHT22;1333;50.958;6.770;2023-02-22T00:55:06;6.70;99.90
2647;DHT22;1333;50.958;6.770;2023-02-22T00:57:32;6.70;99.90
2647;DHT22;1333;50.958;6.770;2023-02-22T01:00:07;6.80;99.90
2647;DHT22;1333;50.958;6.770;2023-02-22T01:02:41;6.80;99.90
2647;DHT22;1333;50.958;6.770;2023-02-22T01:05:08;6.70;99.90
2647;DHT22;1333;50.958;6.770;2023-02-22T01:07:37;6.90;99.90
2647;DHT22;1333;50.958;6.770;2023-02-22T01:10:02;6.90;99.90
2647;DHT22;1333;50.958;6.770;2023-02-22T01:12:28;6.90;99.90
2647;DHT22;1333;50.958;6.770;2023-02-22T01:14:54;6.80;99.90
2647;DHT22;1333;50.958;6.770;2023-02-22T01:17:22;6.80;99.90
2647;DHT22;1333;50.958;6.770;2023-02-22T01:19:47;6.80;99.90
2647;DHT22;1333;50.958;6.770;2023-02-22T01:22:13;6.90;99.90
2647;DHT22;1333;50.958;6.770;2023-02-22T01:24:38;6.80;99.90
2647;DHT22;1333;50.958;6.770;2023-02-22T01:27:04;6.70;99.90
2647;DHT22;1333;50.958;6.770;2023-02-22T01:29:29;6.70;99.90
2647;DHT22;1333;50.958;6.770;2023-02-22T01:31:55;6.80;99.90
2647;DHT22;1333;50.958;6.770;2023-02-22T01:34:22;6.70;99.90
2647;DHT22;1333;50.958;6.770;2023-02-22T01:36:48;6.80;99.90
2647;DHT22;1333;50.958;6.770;2023-02-22T01:39:15;6.80;99.90
2647;DHT22;1333;50.958;6.770;2023-02-22T01:41:43;6.80;99.90
2647;DHT22;1333;50.958;6.770;2023-02-22T01:44:24;6.80;99.90
2647;DHT22;1333;50.958;6.770;2023-02-22T01:46:51;6.80;99.90
2647;DHT22;1333;50.958;6.770;2023-02-22T01:49:17;6.80;99.90
2647;DHT22;1333;50.958;6.770;2023-02-22T01:51:48;6.80;99.90
2647;DHT22;1333;50.958;6.770;2023-02-22T01:54:28;6.80;99.90
2647;DHT22;1333;50.958;6.770;2023-02-22T01:57:25;6.80;99.90
2647;DHT22;1333;50.958;6.770;2023-02-22T01:59:58;6.70;99.90
2647;DHT22;1333;50.958;6.770;2023-02-22T02:02:25;6.70;99.90
2647;DHT22;1333;50.958;6.770;2023-02-22T02:04:53;6.60;99.90
2647;DHT22;1333;50.958;6.770;2023-02-22T02:07:21;6.50;99.90
2647;DHT22;1333;50.958;6.770;2023-02-22T02:09:50;6.50;99.90
2647;DHT22;1333;50.958;6.770;2023-02-22T02:12:17;6.60;99.90
2647;DHT22;1333;50.958;6.770;2023-02-22T02:14:44;6.50;99.90
2647;DHT22;1333;50.958;6.770;2023-02-22T02:17:11;6.50;99.90
2647;DHT22;1333;50.958;6.770;2023-02-22T02:22:34;6.60;99.90
2647;DHT22;1333;50.958;6.770;2023-02-22T02:25:44;6.60;99.90
2647;DHT22;1333;50.958;6.770;2023-02-22T02:34:30;6.60;99.90
2647;DHT22;1333;50.958;6.770;2023-02-22T02:40:32;6.40;99.90
2647;DHT22;1333;50.958;6.770;2023-02-22T02:42:39;6.40;99.90
2647;DHT22;1333;50.958;6.770;2023-02-22T02:45:17;6.50;99.90
2647;DHT22;1333;50.958;6.770;2023-02-22T02:47:48;6.50;99.90
2647;DHT22;1333;50.958;6.770;2023-02-22T02:50:23;6.50;99.90
2647;DHT22;1333;50.958;6.770;2023-02-22T02:52:53;6.50;99.90
2647;DHT22;1333;50.958;6.770;2023-02-22T02:55:21;6.60;99.90
2647;DHT22;1333;50.958;6.770;2023-02-22T02:57:46;6.60;99.90
2647;DHT22;1333;50.958;6.770;2023-02-22T03:00:16;6.60;99.90
2647;DHT22;1333;50.958;6.770;2023-02-22T03:06:10;6.60;99.90
2647;DHT22;1333;50.958;6.770;2023-02-22T03:08:42;6.60;99.90
2647;DHT22;1333;50.958;6.770;2023-02-22T03:11:26;6.60;99.90
2647;DHT22;1333;50.958;6.770;2023-02-22T03:16:32;6.50;99.90
2647;DHT22;1333;50.958;6.770;2023-02-22T03:19:10;6.50;99.90
2647;DHT22;1333;50.958;6.770;2023-02-22T03:22:01;6.40;99.90
2647;DHT22;1333;50.958;6.770;2023-02-22T03:24:55;6.30;99.90
2647;DHT22;1333;50.958;6.770;2023-02-22T03:27:51;6.20;99.90
2647;DHT22;1333;50.958;6.770;2023-02-22T03:30:26;6.30;99.90
2647;DHT22;1333;50.958;6.770;2023-02-22T03:33:03;6.30;99.90
2647;DHT22;1333;50.958;6.770;2023-02-22T03:35:36;6.20;99.90
2647;DHT22;1333;50.958;6.770;2023-02-22T03:38:05;6.20;99.90
2647;DHT22;1333;50.958;6.770;2023-02-22T03:40:36;6.20;99.90
2647;DHT22;1333;50.958;6.770;2023-02-22T03:43:09;6.20;99.90
2647;DHT22;1333;50.958;6.770;2023-02-22T03:45:41;6.30;99.90
2647;DHT22;1333;50.958;6.770;2023-02-22T03:48:26;6.30;99.90
2647;DHT22;1333;50.958;6.770;2023-02-22T03:50:54;6.40;99.90
2647;DHT22;1333;50.958;6.770;2023-02-22T03:53:22;6.30;99.90
2647;DHT22;1333;50.958;6.770;2023-02-22T03:55:49;6.30;99.90
2647;DHT22;1333;50.958;6.770;2023-02-22T03:58:19;6.40;99.90
2647;DHT22;1333;50.958;6.770;2023-02-22T04:00:45;6.50;99.90
2647;DHT22;1333;50.958;6.770;2023-02-22T04:03:11;6.40;99.90
2647;DHT22;1333;50.958;6.770;2023-02-22T04:05:37;6.40;99.90
2647;DHT22;1333;50.958;6.770;2023-02-22T04:08:03;6.40;99.90
2647;DHT22;1333;50.958;6.770;2023-02-22T04:10:30;6.40;99.90
2647;DHT22;1333;50.958;6.770;2023-02-22T04:12:57;6.40;99.90
2647;DHT22;1333;50.958;6.770;2023-02-22T04:15:24;6.50;99.90
2647;DHT22;1333;50.958;6.770;2023-02-22T04:17:50;6.50;99.90
2647;DHT22;1333;50.958;6.770;2023-02-22T04:20:16;6.50;99.90
2647;DHT22;1333;50.958;6.770;2023-02-22T04:22:44;6.60;99.90
2647;DHT22;1333;50.958;6.770;2023-02-22T04:25:10;6.70;99.90
2647;DHT22;1333;50.958;6.770;2023-02-22T04:27:35;6.70;99.90
2647;DHT22;1333;50.958;6.770;2023-02-22T04:30:01;6.70;99.90
2647;DHT22;1333;50.958;6.770;2023-02-22T04:32:27;6.80;99.90
2647;DHT22;1333;50.958;6.770;2023-02-22T04:34:52;6.80;99.90
2647;DHT22;1333;50.958;6.770;2023-02-22T04:37:18;6.80;99.90
2647;DHT22;1333;50.958;6.770;2023-02-22T04:39:43;6.80;99.90
2647;DHT22;1333;50.958;6.770;2023-02-22T04:42:09;6.70;99.90
2647;DHT22;1333;50.958;6.770;2023-02-22T04:44:34;6.70;99.90
2647;DHT22;1333;50.958;6.770;2023-02-22T04:47:00;6.70;99.90
2647;DHT22;1333;50.958;6.770;2023-02-22T04:49:25;6.70;99.90
2647;DHT22;1333;50.958;6.770;2023-02-22T04:51:51;6.60;99.90
2647;DHT22;1333;50.958;6.770;2023-02-22T04:54:17;6.60;99.90
2647;DHT22;1333;50.958;6.770;2023-02-22T04:56:43;6.60;99.90
2647;DHT22;1333;50.958;6.770;2023-02-22T04:59:09;6.50;99.90
2647;DHT22;1333;50.958;6.770;2023-02-22T05:01:35;6.50;99.90
2647;DHT22;1333;50.958;6.770;2023-02-22T05:04:02;6.40;99.90
2647;DHT22;1333;50.958;6.770;2023-02-22T05:06:27;6.40;99.90
2647;DHT22;1333;50.958;6.770;2023-02-22T05:08:53;6.50;99.90
2647;DHT22;1333;50.958;6.770;2023-02-22T05:11:19;6.30;99.90
2647;DHT22;1333;50.958;6.770;2023-02-22T05:13:44;6.40;99.90
2647;DHT22;1333;50.958;6.770;2023-02-22T05:16:10;6.40;99.90
2647;DHT22;1333;50.958;6.770;2023-02-22T05:18:35;6.30;99.90
2647;DHT22;1333;50.958;6.770;2023-02-22T05:21:01;6.30;99.90
2647;DHT22;1333;50.958;6.770;2023-02-22T05:23:26;6.20;99.90
2647;DHT22;1333;50.958;6.770;2023-02-22T05:25:52;6.20;99.90
2647;DHT22;1333;50.958;6.770;2023-02-22T05:28:17;6.20;99.90
2647;DHT22;1333;50.958;6.770;2023-02-22T05:30:43;6.10;99.90
2647;DHT22;1333;50.958;6.770;2023-02-22T05:33:08;6.10;99.90
2647;DHT22;1333;50.958;6.770;2023-02-22T05:35:34;6.00;99.90
2647;DHT22;1333;50.958;6.770;2023-02-22T05:38:02;6.10;99.90
2647;DHT22;1333;50.958;6.770;2023-02-22T05:40:28;6.00;99.90
2647;DHT22;1333;50.958;6.770;2023-02-22T05:42:55;5.90;99.90
2647;DHT22;1333;50.958;6.770;2023-02-22T05:45:24;5.80;99.90
2647;DHT22;1333;50.958;6.770;2023-02-22T05:47:50;5.80;99.90
2647;DHT22;1333;50.958;6.770;2023-02-22T05:50:16;5.80;99.90
2647;DHT22;1333;50.958;6.770;2023-02-22T05:52:42;5.70;99.90
2647;DHT22;1333;50.958;6.770;2023-02-22T05:55:09;5.60;99.90
2647;DHT22;1333;50.958;6.770;2023-02-22T05:57:35;5.70;99.90
2647;DHT22;1333;50.958;6.770;2023-02-22T06:00:02;5.70;99.90
2647;DHT22;1333;50.958;6.770;2023-02-22T06:02:28;5.60;99.90
2647;DHT22;1333;50.958;6.770;2023-02-22T06:04:54;5.60;99.90
2647;DHT22;1333;50.958;6.770;2023-02-22T06:07:19;5.60;99.90
2647;DHT22;1333;50.958;6.770;2023-02-22T06:09:45;5.50;99.90
2647;DHT22;1333;50.958;6.770;2023-02-22T06:12:10;5.50;99.90
2647;DHT22;1333;50.958;6.770;2023-02-22T06:14:36;5.60;99.90
2647;DHT22;1333;50.958;6.770;2023-02-22T06:17:02;5.50;99.90
2647;DHT22;1333;50.958;6.770;2023-02-22T06:19:29;5.50;99.90
2647;DHT22;1333;50.958;6.770;2023-02-22T06:21:56;5.50;99.90
2647;DHT22;1333;50.958;6.770;2023-02-22T06:24:24;5.50;99.90
2647;DHT22;1333;50.958;6.770;2023-02-22T06:27:00;5.50;99.90
2647;DHT22;1333;50.958;6.770;2023-02-22T06:29:27;5.50;99.90
2647;DHT22;1333;50.958;6.770;2023-02-22T06:31:53;5.40;99.90
2647;DHT22;1333;50.958;6.770;2023-02-22T06:34:19;5.40;99.90
2647;DHT22;1333;50.958;6.770;2023-02-22T06:36:46;5.40;99.90
2647;DHT22;1333;50.958;6.770;2023-02-22T06:39:13;5.30;99.90
2647;DHT22;1333;50.958;6.770;2023-02-22T06:41:40;5.40;99.90
2647;DHT22;1333;50.958;6.770;2023-02-22T06:44:07;5.30;99.90
2647;DHT22;1333;50.958;6.770;2023-02-22T06:46:32;5.40;99.90
2647;DHT22;1333;50.958;6.770;2023-02-22T06:48:58;5.40;99.90
2647;DHT22;1333;50.958;6.770;2023-02-22T06:51:25;5.50;99.90
2647;DHT22;1333;50.958;6.770;2023-02-22T06:53:51;5.50;99.90
2647;DHT22;1333;50.958;6.770;2023-02-22T06:56:16;5.60;99.90
2647;DHT22;1333;50.958;6.770;2023-02-22T06:58:42;5.60;99.90
2647;DHT22;1333;50.958;6.770;2023-02-22T07:01:07;5.60;99.90
2647;DHT22;1333;50.958;6.770;2023-02-22T07:03:34;5.60;99.90
2647;DHT22;1333;50.958;6.770;2023-02-22T07:06:01;5.60;99.90
2647;DHT22;1333;50.958;6.770;2023-02-22T07:08:27;5.70;99.90
2647;DHT22;1333;50.958;6.770;2023-02-22T07:10:52;5.70;99.90
2647;DHT22;1333;50.958;6.770;2023-02-22T07:13:18;5.80;99.90
2647;DHT22;1333;50.958;6.770;2023-02-22T07:15:44;5.80;99.90
2647;DHT22;1333;50.958;6.770;2023-02-22T07:18:09;5.80;99.90
2647;DHT22;1333;50.958;6.770;2023-02-22T07:20:36;5.80;99.90
2647;DHT22;1333;50.958;6.770;2023-02-22T07:23:02;5.80;99.90
2647;DHT22;1333;50.958;6.770;2023-02-22T07:25:28;5.90;99.90
2647;DHT22;1333;50.958;6.770;2023-02-22T07:27:54;5.90;99.90
2647;DHT22;1333;50.958;6.770;2023-02-22T07:30:24;6.00;99.90
2647;DHT22;1333;50.958;6.770;2023-02-22T07:32:53;6.00;99.90
2647;DHT22;1333;50.958;6.770;2023-02-22T07:35:31;6.10;99.90
2647;DHT22;1333;50.958;6.770;2023-02-22T07:37:57;6.20;99.90
2647;DHT22;1333;50.958;6.770;2023-02-22T07:40:25;6.30;99.90
2647;DHT22;1333;50.958;6.770;2023-02-22T07:43:11;6.40;99.90
2647;DHT22;1333;50.958;6.770;2023-02-22T07:45:37;6.50;99.90
2647;DHT22;1333;50.958;6.770;2023-02-22T07:48:04;6.60;99.90
2647;DHT22;1333;50.958;6.770;2023-02-22T07:50:32;6.80;99.90
2647;DHT22;1333;50.958;6.770;2023-02-22T07:53:02;6.90;99.90
2647;DHT22;1333;50.958;6.770;2023-02-22T07:55:29;7.00;99.90
2647;DHT22;1333;50.958;6.770;2023-02-22T07:58:00;7.10;99.90
2647;DHT22;1333;50.958;6.770;2023-02-22T08:00:31;7.30;99.90
2647;DHT22;1333;50.958;6.770;2023-02-22T08:02:59;7.40;99.90
2647;DHT22;1333;50.958;6.770;2023-02-22T08:05:26;7.60;99.90
2647;DHT22;1333;50.958;6.770;2023-02-22T08:07:52;7.60;99.90
2647;DHT22;1333;50.958;6.770;2023-02-22T08:10:19;7.70;99.90
2647;DHT22;1333;50.958;6.770;2023-02-22T08:12:45;7.80;99.90
2647;DHT22;1333;50.958;6.770;2023-02-22T08:15:18;7.90;99.90
2647;DHT22;1333;50.958;6.770;2023-02-22T08:17:43;8.20;99.90
2647;DHT22;1333;50.958;6.770;2023-02-22T08:20:09;8.50;99.90
2647;DHT22;1333;50.958;6.770;2023-02-22T08:22:35;8.90;99.90
2647;DHT22;1333;50.958;6.770;2023-02-22T08:25:00;9.30;99.90
2647;DHT22;1333;50.958;6.770;2023-02-22T08:27:28;9.90;99.90
2647;DHT22;1333;50.958;6.770;2023-02-22T08:29:54;10.50;99.90
2647;DHT22;1333;50.958;6.770;2023-02-22T08:32:21;11.10;99.90
2647;DHT22;1333;50.958;6.770;2023-02-22T08:34:48;11.70;99.90
2647;DHT22;1333;50.958;6.770;2023-02-22T08:37:14;12.20;99.90
2647;DHT22;1333;50.958;6.770;2023-02-22T08:39:41;12.90;99.90
2647;DHT22;1333;50.958;6.770;2023-02-22T08:42:06;13.30;99.90
2647;DHT22;1333;50.958;6.770;2023-02-22T08:44:34;13.60;99.90
2647;DHT22;1333;50.958;6.770;2023-02-22T08:46:59;14.00;99.90
2647;DHT22;1333;50.958;6.770;2023-02-22T08:49:25;14.10;99.90
2647;DHT22;1333;50.958;6.770;2023-02-22T08:51:50;14.20;99.90
2647;DHT22;1333;50.958;6.770;2023-02-22T08:54:16;14.40;99.90
2647;DHT22;1333;50.958;6.770;2023-02-22T08:56:42;14.60;99.90
2647;DHT22;1333;50.958;6.770;2023-02-22T08:59:08;14.90;99.90
2647;DHT22;1333;50.958;6.770;2023-02-22T09:01:34;15.20;99.90
2647;DHT22;1333;50.958;6.770;2023-02-22T09:03:59;15.60;99.90
2647;DHT22;1333;50.958;6.770;2023-02-22T09:06:25;16.00;99.90
2647;DHT22;1333;50.958;6.770;2023-02-22T09:08:51;15.70;99.90
2647;DHT22;1333;50.958;6.770;2023-02-22T09:11:16;15.40;99.90
2647;DHT22;1333;50.958;6.770;2023-02-22T09:13:43;15.50;99.90
2647;DHT22;1333;50.958;6.770;2023-02-22T09:16:08;15.30;99.90
2647;DHT22;1333;50.958;6.770;2023-02-22T09:18:34;15.60;99.90
2647;DHT22;1333;50.958;6.770;2023-02-22T09:20:59;15.80;99.90
2647;DHT22;1333;50.958;6.770;2023-02-22T09:23:25;16.20;99.90
2647;DHT22;1333;50.958;6.770;2023-02-22T09:25:51;16.20;99.90
2647;DHT22;1333;50.958;6.770;2023-02-22T09:28:17;16.40;99.90
2647;DHT22;1333;50.958;6.770;2023-02-22T09:30:43;16.80;99.90
2647;DHT22;1333;50.958;6.770;2023-02-22T09:33:12;17.00;99.90
2647;DHT22;1333;50.958;6.770;2023-02-22T09:35:39;17.20;99.90
2647;DHT22;1333;50.958;6.770;2023-02-22T09:38:11;17.40;99.90
2647;DHT22;1333;50.958;6.770;2023-02-22T09:40:53;17.60;99.90
2647;DHT22;1333;50.958;6.770;2023-02-22T09:48:55;19.10;99.90
2647;DHT22;1333;50.958;6.770;2023-02-22T09:51:25;19.80;99.10
2647;DHT22;1333;50.958;6.770;2023-02-22T09:53:56;20.00;95.30
2647;DHT22;1333;50.958;6.770;2023-02-22T09:56:24;19.90;92.70
2647;DHT22;1333;50.958;6.770;2023-02-22T09:58:54;20.40;93.70
2647;DHT22;1333;50.958;6.770;2023-02-22T10:01:27;20.70;90.20
2647;DHT22;1333;50.958;6.770;2023-02-22T10:04:07;21.30;86.90
2647;DHT22;1333;50.958;6.770;2023-02-22T10:06:35;21.70;84.60
2647;DHT22;1333;50.958;6.770;2023-02-22T10:09:03;22.00;81.00
2647;DHT22;1333;50.958;6.770;2023-02-22T10:11:59;22.10;75.70
2647;DHT22;1333;50.958;6.770;2023-02-22T10:17:51;22.90;69.80
2647;DHT22;1333;50.958;6.770;2023-02-22T10:29:01;25.10;63.80
2647;DHT22;1333;50.958;6.770;2023-02-22T10:31:29;25.90;59.40
2647;DHT22;1333;50.958;6.770;2023-02-22T10:34:01;26.20;55.80
2647;DHT22;1333;50.958;6.770;2023-02-22T10:36:27;26.50;55.10
2647;DHT22;1333;50.958;6.770;2023-02-22T10:41:50;26.20;52.80
2647;DHT22;1333;50.958;6.770;2023-02-22T10:44:18;26.20;53.30
2647;DHT22;1333;50.958;6.770;2023-02-22T10:46:44;26.70;53.10
2647;DHT22;1333;50.958;6.770;2023-02-22T10:49:20;26.80;52.10
2647;DHT22;1333;50.958;6.770;2023-02-22T10:51:59;27.70;52.70
2647;DHT22;1333;50.958;6.770;2023-02-22T10:54:27;28.00;51.20
2647;DHT22;1333;50.958;6.770;2023-02-22T10:56:55;28.30;50.30
2647;DHT22;1333;50.958;6.770;2023-02-22T10:59:30;28.90;49.50
2647;DHT22;1333;50.958;6.770;2023-02-22T11:01:57;29.50;48.20
2647;DHT22;1333;50.958;6.770;2023-02-22T11:04:23;30.00;47.40
2647;DHT22;1333;50.958;6.770;2023-02-22T11:07:08;30.40;46.80
2647;DHT22;1333;50.958;6.770;2023-02-22T11:09:55;30.30;46.30
2647;DHT22;1333;50.958;6.770;2023-02-22T11:14:55;30.40;46.00
2647;DHT22;1333;50.958;6.770;2023-02-22T11:17:28;30.90;46.30
2647;DHT22;1333;50.958;6.770;2023-02-22T11:19:55;30.30;45.00
2647;DHT22;1333;50.958;6.770;2023-02-22T11:22:44;30.30;45.10
2647;DHT22;1333;50.958;6.770;2023-02-22T11:25:18;30.50;44.80
2647;DHT22;1333;50.958;6.770;2023-02-22T11:27:46;30.70;44.60
2647;DHT22;1333;50.958;6.770;2023-02-22T11:33:02;32.20;43.60
2647;DHT22;1333;50.958;6.770;2023-02-22T11:35:39;33.00;42.80
2647;DHT22;1333;50.958;6.770;2023-02-22T11:38:20;33.10;41.80
2647;DHT22;1333;50.958;6.770;2023-02-22T11:41:04;33.30;41.20
2647;DHT22;1333;50.958;6.770;2023-02-22T11:43:31;32.70;41.10
2647;DHT22;1333;50.958;6.770;2023-02-22T11:46:11;33.20;41.60
2647;DHT22;1333;50.958;6.770;2023-02-22T11:48:40;33.50;41.40
2647;DHT22;1333;50.958;6.770;2023-02-22T11:51:16;33.70;40.90
2647;DHT22;1333;50.958;6.770;2023-02-22T11:54:00;33.60;40.70
2647;DHT22;1333;50.958;6.770;2023-02-22T11:56:44;32.70;40.10
2647;DHT22;1333;50.958;6.770;2023-02-22T11:59:35;31.70;40.80
2647;DHT22;1333;50.958;6.770;2023-02-22T12:11:18;30.50;43.10
2647;DHT22;1333;50.958;6.770;2023-02-22T12:17:21;30.60;42.70
2647;DHT22;1333;50.958;6.770;2023-02-22T12:19:55;30.80;42.90
2647;DHT22;1333;50.958;6.770;2023-02-22T12:22:27;30.60;42.70
2647;DHT22;1333;50.958;6.770;2023-02-22T12:25:02;30.50;42.30
2647;DHT22;1333;50.958;6.770;2023-02-22T12:27:52;30.10;42.20
2647;DHT22;1333;50.958;6.770;2023-02-22T12:30:45;29.60;42.40
2647;DHT22;1333;50.958;6.770;2023-02-22T12:33:23;29.30;43.60
2647;DHT22;1333;50.958;6.770;2023-02-22T12:35:53;28.90;43.60
2647;DHT22;1333;50.958;6.770;2023-02-22T12:38:35;28.60;43.90
2647;DHT22;1333;50.958;6.770;2023-02-22T12:41:21;28.40;44.00
2647;DHT22;1333;50.958;6.770;2023-02-22T12:44:05;28.20;43.90
2647;DHT22;1333;50.958;6.770;2023-02-22T12:46:40;27.60;44.30
2647;DHT22;1333;50.958;6.770;2023-02-22T12:52:06;27.00;45.70
2647;DHT22;1333;50.958;6.770;2023-02-22T12:55:03;26.90;46.00
2647;DHT22;1333;50.958;6.770;2023-02-22T13:00:33;27.20;46.20
2647;DHT22;1333;50.958;6.770;2023-02-22T13:05:58;27.10;46.60
2647;DHT22;1333;50.958;6.770;2023-02-22T13:08:33;27.10;46.40
2647;DHT22;1333;50.958;6.770;2023-02-22T13:11:04;26.30;46.20
2647;DHT22;1333;50.958;6.770;2023-02-22T13:13:43;26.30;47.20
2647;DHT22;1333;50.958;6.770;2023-02-22T13:16:27;26.00;47.40
2647;DHT22;1333;50.958;6.770;2023-02-22T13:19:15;26.00;47.80
2647;DHT22;1333;50.958;6.770;2023-02-22T13:21:51;26.10;47.90
2647;DHT22;1333;50.958;6.770;2023-02-22T13:24:24;26.50;47.40
2647;DHT22;1333;50.958;6.770;2023-02-22T13:26:58;26.80;47.30
2647;DHT22;1333;50.958;6.770;2023-02-22T13:29:37;27.50;46.90
2647;DHT22;1333;50.958;6.770;2023-02-22T13:40:29;28.80;43.70
2647;DHT22;1333;50.958;6.770;2023-02-22T13:43:21;28.50;43.70
2647;DHT22;1333;50.958;6.770;2023-02-22T13:51:48;27.50;45.20
2647;DHT22;1333;50.958;6.770;2023-02-22T13:57:32;28.60;45.90
2647;DHT22;1333;50.958;6.770;2023-02-22T14:00:17;29.50;44.70
2647;DHT22;1333;50.958;6.770;2023-02-22T14:13:31;30.30;44.10
2647;DHT22;1333;50.958;6.770;2023-02-22T14:18:45;30.70;43.20
2647;DHT22;1333;50.958;6.770;2023-02-22T14:21:16;30.80;42.20
2647;DHT22;1333;50.958;6.770;2023-02-22T14:23:49;30.90;43.30
2647;DHT22;1333;50.958;6.770;2023-02-22T14:26:32;31.10;41.60
2647;DHT22;1333;50.958;6.770;2023-02-22T14:34:11;31.10;41.50
2647;DHT22;1333;50.958;6.770;2023-02-22T14:42:11;31.00;43.70
2647;DHT22;1333;50.958;6.770;2023-02-22T14:47:16;30.60;42.10
2647;DHT22;1333;50.958;6.770;2023-02-22T14:49:47;30.10;41.90
2647;DHT22;1333;50.958;6.770;2023-02-22T14:52:28;29.60;42.90
2647;DHT22;1333;50.958;6.770;2023-02-22T14:55:01;29.00;43.70
2647;DHT22;1333;50.958;6.770;2023-02-22T15:00:28;26.90;44.30
2647;DHT22;1333;50.958;6.770;2023-02-22T15:03:00;26.30;45.60
2647;DHT22;1333;50.958;6.770;2023-02-22T15:05:32;25.60;46.80
2647;DHT22;1333;50.958;6.770;2023-02-22T15:08:01;25.00;48.50
2647;DHT22;1333;50.958;6.770;2023-02-22T15:10:39;24.50;49.70
2647;DHT22;1333;50.958;6.770;2023-02-22T15:13:18;24.00;51.00
2647;DHT22;1333;50.958;6.770;2023-02-22T15:15:57;23.50;51.90
2647;DHT22;1333;50.958;6.770;2023-02-22T15:18:25;23.10;52.70
2647;DHT22;1333;50.958;6.770;2023-02-22T15:20:55;22.70;53.50
2647;DHT22;1333;50.958;6.770;2023-02-22T15:23:25;22.30;54.20
2647;DHT22;1333;50.958;6.770;2023-02-22T15:25:52;22.00;55.10
2647;DHT22;1333;50.958;6.770;2023-02-22T15:28:18;21.80;55.70
2647;DHT22;1333;50.958;6.770;2023-02-22T15:30:46;21.50;56.40
2647;DHT22;1333;50.958;6.770;2023-02-22T15:33:17;21.20;57.10
2647;DHT22;1333;50.958;6.770;2023-02-22T15:35:55;20.90;57.90
2647;DHT22;1333;50.958;6.770;2023-02-22T15:38:27;20.70;58.80
2647;DHT22;1333;50.958;6.770;2023-02-22T15:41:01;20.50;59.50
2647;DHT22;1333;50.958;6.770;2023-02-22T15:43:28;20.20;60.20
2647;DHT22;1333;50.958;6.770;2023-02-22T15:45:56;20.00;61.50
2647;DHT22;1333;50.958;6.770;2023-02-22T15:48:22;19.70;62.90
2647;DHT22;1333;50.958;6.770;2023-02-22T15:51:11;19.50;64.70
2647;DHT22;1333;50.958;6.770;2023-02-22T15:53:46;19.30;66.40
2647;DHT22;1333;50.958;6.770;2023-02-22T15:56:15;19.10;69.10
2647;DHT22;1333;50.958;6.770;2023-02-22T15:58:42;18.90;72.90
2647;DHT22;1333;50.958;6.770;2023-02-22T16:01:12;18.70;77.50
2647;DHT22;1333;50.958;6.770;2023-02-22T16:03:52;18.50;83.10
2647;DHT22;1333;50.958;6.770;2023-02-22T16:06:33;18.20;90.00
2647;DHT22;1333;50.958;6.770;2023-02-22T16:09:23;18.00;93.50
2647;DHT22;1333;50.958;6.770;2023-02-22T16:11:49;17.80;97.20
2647;DHT22;1333;50.958;6.770;2023-02-22T16:14:40;17.60;99.90
2647;DHT22;1333;50.958;6.770;2023-02-22T16:17:33;17.30;99.90
2647;DHT22;1333;50.958;6.770;2023-02-22T16:22:49;16.90;99.90
2647;DHT22;1333;50.958;6.770;2023-02-22T16:27:47;16.60;99.90
2647;DHT22;1333;50.958;6.770;2023-02-22T16:32:42;16.20;99.90
2647;DHT22;1333;50.958;6.770;2023-02-22T16:35:08;16.10;99.90
2647;DHT22;1333;50.958;6.770;2023-02-22T16:37:56;16.00;99.90
2647;DHT22;1333;50.958;6.770;2023-02-22T16:40:36;15.80;99.90
2647;DHT22;1333;50.958;6.770;2023-02-22T16:43:10;15.70;99.90
2647;DHT22;1333;50.958;6.770;2023-02-22T16:45:36;15.60;99.90
2647;DHT22;1333;50.958;6.770;2023-02-22T16:48:22;15.40;99.90
2647;DHT22;1333;50.958;6.770;2023-02-22T16:50:49;15.30;99.90
2647;DHT22;1333;50.958;6.770;2023-02-22T16:53:18;15.20;99.90
2647;DHT22;1333;50.958;6.770;2023-02-22T16:55:44;15.20;99.90
2647;DHT22;1333;50.958;6.770;2023-02-22T16:58:13;15.10;99.90
2647;DHT22;1333;50.958;6.770;2023-02-22T17:00:40;15.00;99.90
2647;DHT22;1333;50.958;6.770;2023-02-22T17:03:12;14.90;99.90
2647;DHT22;1333;50.958;6.770;2023-02-22T17:05:38;14.90;99.90
2647;DHT22;1333;50.958;6.770;2023-02-22T17:08:04;14.80;99.90
2647;DHT22;1333;50.958;6.770;2023-02-22T17:10:30;14.70;99.90
2647;DHT22;1333;50.958;6.770;2023-02-22T17:12:56;14.60;99.90
2647;DHT22;1333;50.958;6.770;2023-02-22T17:15:25;14.50;99.90
2647;DHT22;1333;50.958;6.770;2023-02-22T17:17:51;14.30;99.90
2647;DHT22;1333;50.958;6.770;2023-02-22T17:20:18;14.30;99.90
2647;DHT22;1333;50.958;6.770;2023-02-22T17:25:30;14.10;99.90
2647;DHT22;1333;50.958;6.770;2023-02-22T17:27:57;14.00;99.90
2647;DHT22;1333;50.958;6.770;2023-02-22T17:30:22;14.00;99.90
2647;DHT22;1333;50.958;6.770;2023-02-22T17:32:50;13.90;99.90
2647;DHT22;1333;50.958;6.770;2023-02-22T17:35:19;13.80;99.90
2647;DHT22;1333;50.958;6.770;2023-02-22T17:37:50;13.80;99.90
2647;DHT22;1333;50.958;6.770;2023-02-22T17:40:16;13.80;99.90
2647;DHT22;1333;50.958;6.770;2023-02-22T17:42:42;13.70;99.90
2647;DHT22;1333;50.958;6.770;2023-02-22T17:45:09;13.70;99.90
2647;DHT22;1333;50.958;6.770;2023-02-22T17:47:41;13.60;99.90
2647;DHT22;1333;50.958;6.770;2023-02-22T17:50:09;13.60;99.90
2647;DHT22;1333;50.958;6.770;2023-02-22T17:52:35;13.60;99.90
2647;DHT22;1333;50.958;6.770;2023-02-22T17:55:01;13.60;99.90
2647;DHT22;1333;50.958;6.770;2023-02-22T17:57:26;13.60;99.90
2647;DHT22;1333;50.958;6.770;2023-02-22T17:59:53;13.60;99.90
2647;DHT22;1333;50.958;6.770;2023-02-22T18:02:19;13.50;99.90
2647;DHT22;1333;50.958;6.770;2023-02-22T18:04:44;13.50;99.90
2647;DHT22;1333;50.958;6.770;2023-02-22T18:07:10;13.50;99.90
2647;DHT22;1333;50.958;6.770;2023-02-22T18:09:37;13.50;99.90
2647;DHT22;1333;50.958;6.770;2023-02-22T18:12:03;13.50;99.90
2647;DHT22;1333;50.958;6.770;2023-02-22T18:14:28;13.50;99.90
2647;DHT22;1333;50.958;6.770;2023-02-22T18:16:54;13.50;99.90
2647;DHT22;1333;50.958;6.770;2023-02-22T18:19:19;13.50;99.90
2647;DHT22;1333;50.958;6.770;2023-02-22T18:21:46;13.50;99.90
2647;DHT22;1333;50.958;6.770;2023-02-22T18:24:12;13.50;99.90
2647;DHT22;1333;50.958;6.770;2023-02-22T18:26:37;13.50;99.90
2647;DHT22;1333;50.958;6.770;2023-02-22T18:29:06;13.50;99.90
2647;DHT22;1333;50.958;6.770;2023-02-22T18:31:32;13.50;99.90